sensor_id;sensor_type;location;lat;lon;timestamp;temperature;humidity
17715;DHT22;8977;50.902;4.314;2023-03-09T00:00:15;7.20;99.90
17715;DHT22;8977;50.902;4.314;2023-03-09T00:02:47;7.20;99.90
17715;DHT22;8977;50.902;4.314;2023-03-09T00:05:16;7.20;99.90
17715;DHT22;8977;50.902;4.314;2023-03-09T00:07:43;7.20;99.90
17715;DHT22;8977;50.902;4.314;2023-03-09T00:10:11;7.20;99.90
17715;DHT22;8977;50.902;4.314;2023-03-09T00:12:38;7.20;99.90
17715;DHT22;8977;50.902;4.314;2023-03-09T00:15:06;7.30;99.90
17715;DHT22;8977;50.902;4.314;2023-03-09T00:17:34;7.30;99.90
17715;DHT22;8977;50.902;4.314;2023-03-09T00:20:01;7.40;99.90
17715;DHT22;8977;50.902;4.314;2023-03-09T00:22:42;7.40;99.90
17715;DHT22;8977;50.902;4.314;2023-03-09T00:25:09;7.40;99.90
17715;DHT22;8977;50.902;4.314;2023-03-09T00:27:39;7.40;99.90
17715;DHT22;8977;50.902;4.314;2023-03-09T00:30:07;7.40;99.90
17715;DHT22;8977;50.902;4.314;2023-03-09T00:32:35;7.40;99.90
17715;DHT22;8977;50.902;4.314;2023-03-09T00:35:02;7.40;99.90
17715;DHT22;8977;50.902;4.314;2023-03-09T00:37:29;7.30;99.90
17715;DHT22;8977;50.902;4.314;2023-03-09T00:39:58;7.30;99.90
17715;DHT22;8977;50.902;4.314;2023-03-09T00:42:24;7.40;99.90
17715;DHT22;8977;50.902;4.314;2023-03-09T00:44:51;7.40;99.90
17715;DHT22;8977;50.902;4.314;2023-03-09T00:47:18;7.30;99.90
17715;DHT22;8977;50.902;4.314;2023-03-09T00:49:46;7.30;99.90
17715;DHT22;8977;50.902;4.314;2023-03-09T00:52:12;7.40;99.90
17715;DHT22;8977;50.902;4.314;2023-03-09T00:54:39;7.40;99.90
17715;DHT22;8977;50.902;4.314;2023-03-09T00:57:08;7.40;99.90
17715;DHT22;8977;50.902;4.314;2023-03-09T00:59:34;7.40;99.90
17715;DHT22;8977;50.902;4.314;2023-03-09T01:02:01;7.40;99.90
17715;DHT22;8977;50.902;4.314;2023-03-09T01:04:28;7.40;99.90
17715;DHT22;8977;50.902;4.314;2023-03-09T01:06:55;7.40;99.90
17715;DHT22;8977;50.902;4.314;2023-03-09T01:09:22;7.30;99.90
17715;DHT22;8977;50.902;4.314;2023-03-09T01:11:49;7.40;99.90
17715;DHT22;8977;50.902;4.314;2023-03-09T01:14:17;7.30;99.90
17715;DHT22;8977;50.902;4.314;2023-03-09T01:16:44;7.30;99.90
17715;DHT22;8977;50.902;4.314;2023-03-09T01:19:11;7.30;99.90
17715;DHT22;8977;50.902;4.314;2023-03-09T01:21:38;7.30;99.90
17715;DHT22;8977;50.902;4.314;2023-03-09T01:24:05;7.30;99.90
17715;DHT22;8977;50.902;4.314;2023-03-09T01:26:32;7.30;99.90
17715;DHT22;8977;50.902;4.314;2023-03-09T01:29:02;7.30;99.90
17715;DHT22;8977;50.902;4.314;2023-03-09T01:31:30;7.30;99.90
17715;DHT22;8977;50.902;4.314;2023-03-09T01:33:57;7.30;99.90
17715;DHT22;8977;50.902;4.314;2023-03-09T01:36:24;7.30;99.90
17715;DHT22;8977;50.902;4.314;2023-03-09T01:38:51;7.30;99.90
17715;DHT22;8977;50.902;4.314;2023-03-09T01:41:19;7.30;99.90
17715;DHT22;8977;50.902;4.314;2023-03-09T01:43:48;7.30;99.90
17715;DHT22;8977;50.902;4.314;2023-03-09T01:46:47;7.30;99.90
17715;DHT22;8977;50.902;4.314;2023-03-09T01:49:20;7.30;99.90
17715;DHT22;8977;50.902;4.314;2023-03-09T01:51:54;7.30;99.90
17715;DHT22;8977;50.902;4.314;2023-03-09T01:54:26;7.30;99.90
17715;DHT22;8977;50.902;4.314;2023-03-09T01:56:56;7.30;99.90
17715;DHT22;8977;50.902;4.314;2023-03-09T01:59:26;7.30;99.90
17715;DHT22;8977;50.902;4.314;2023-03-09T02:01:56;7.30;99.90
17715;DHT22;8977;50.902;4.314;2023-03-09T02:04:29;7.40;99.90
17715;DHT22;8977;50.902;4.314;2023-03-09T02:06:58;7.30;99.90
17715;DHT22;8977;50.902;4.314;2023-03-09T02:09:29;7.30;99.90
17715;DHT22;8977;50.902;4.314;2023-03-09T02:11:58;7.30;99.90
17715;DHT22;8977;50.902;4.314;2023-03-09T02:14:26;7.30;99.90
17715;DHT22;8977;50.902;4.314;2023-03-09T02:16:55;7.20;99.90
17715;DHT22;8977;50.902;4.314;2023-03-09T02:19:34;7.30;99.90
17715;DHT22;8977;50.902;4.314;2023-03-09T02:22:04;7.30;99.90
17715;DHT22;8977;50.902;4.314;2023-03-09T02:24:43;7.30;99.90
17715;DHT22;8977;50.902;4.314;2023-03-09T02:27:15;7.30;99.90
17715;DHT22;8977;50.902;4.314;2023-03-09T02:29:43;7.30;99.90
17715;DHT22;8977;50.902;4.314;2023-03-09T02:32:10;7.30;99.90
17715;DHT22;8977;50.902;4.314;2023-03-09T02:34:37;7.30;99.90
17715;DHT22;8977;50.902;4.314;2023-03-09T02:37:15;7.30;99.90
17715;DHT22;8977;50.902;4.314;2023-03-09T02:39:49;7.30;99.90
17715;DHT22;8977;50.902;4.314;2023-03-09T02:42:19;7.20;99.90
17715;DHT22;8977;50.902;4.314;2023-03-09T02:44:46;7.30;99.90
17715;DHT22;8977;50.902;4.314;2023-03-09T02:47:17;7.30;99.90
17715;DHT22;8977;50.902;4.314;2023-03-09T02:49:44;7.30;99.90
17715;DHT22;8977;50.902;4.314;2023-03-09T02:52:11;7.30;99.90
17715;DHT22;8977;50.902;4.314;2023-03-09T02:54:38;7.30;99.90
17715;DHT22;8977;50.902;4.314;2023-03-09T02:57:05;7.30;99.90
17715;DHT22;8977;50.902;4.314;2023-03-09T02:59:36;7.40;99.90
17715;DHT22;8977;50.902;4.314;2023-03-09T03:02:03;7.30;99.90
17715;DHT22;8977;50.902;4.314;2023-03-09T03:04:30;7.30;99.90
17715;DHT22;8977;50.902;4.314;2023-03-09T03:06:57;7.30;99.90
17715;DHT22;8977;50.902;4.314;2023-03-09T03:09:25;7.30;99.90
17715;DHT22;8977;50.902;4.314;2023-03-09T03:11:53;7.40;99.90
17715;DHT22;8977;50.902;4.314;2023-03-09T03:14:20;7.30;99.90
17715;DHT22;8977;50.902;4.314;2023-03-09T03:16:48;7.30;99.90
17715;DHT22;8977;50.902;4.314;2023-03-09T03:19:15;7.30;99.90
17715;DHT22;8977;50.902;4.314;2023-03-09T03:21:43;7.30;99.90
17715;DHT22;8977;50.902;4.314;2023-03-09T03:24:10;7.40;99.90
17715;DHT22;8977;50.902;4.314;2023-03-09T03:26:37;7.30;99.90
17715;DHT22;8977;50.902;4.314;2023-03-09T03:29:04;7.30;99.90
17715;DHT22;8977;50.902;4.314;2023-03-09T03:31:31;7.30;99.90
17715;DHT22;8977;50.902;4.314;2023-03-09T03:34:00;7.30;99.90
17715;DHT22;8977;50.902;4.314;2023-03-09T03:36:27;7.30;99.90
17715;DHT22;8977;50.902;4.314;2023-03-09T03:38:53;7.30;99.90
17715;DHT22;8977;50.902;4.314;2023-03-09T03:41:20;7.20;99.90
17715;DHT22;8977;50.902;4.314;2023-03-09T03:43:47;7.30;99.90
17715;DHT22;8977;50.902;4.314;2023-03-09T03:46:14;7.30;99.90
17715;DHT22;8977;50.902;4.314;2023-03-09T03:48:42;7.30;99.90
17715;DHT22;8977;50.902;4.314;2023-03-09T03:51:10;7.30;99.90
17715;DHT22;8977;50.902;4.314;2023-03-09T03:53:37;7.40;99.90
17715;DHT22;8977;50.902;4.314;2023-03-09T03:56:04;7.30;99.90
17715;DHT22;8977;50.902;4.314;2023-03-09T03:58:31;7.30;99.90
17715;DHT22;8977;50.902;4.314;2023-03-09T04:00:58;7.30;99.90
17715;DHT22;8977;50.902;4.314;2023-03-09T04:03:25;7.30;99.90
17715;DHT22;8977;50.902;4.314;2023-03-09T04:05:53;7.30;99.90
17715;DHT22;8977;50.902;4.314;2023-03-09T04:08:21;7.30;99.90
17715;DHT22;8977;50.902;4.314;2023-03-09T04:10:48;7.30;99.90
17715;DHT22;8977;50.902;4.314;2023-03-09T04:13:15;7.40;99.90
17715;DHT22;8977;50.902;4.314;2023-03-09T04:15:42;7.40;99.90
17715;DHT22;8977;50.902;4.314;2023-03-09T04:18:09;7.30;99.90
17715;DHT22;8977;50.902;4.314;2023-03-09T04:20:37;7.30;99.90
17715;DHT22;8977;50.902;4.314;2023-03-09T04:23:05;7.30;99.90
17715;DHT22;8977;50.902;4.314;2023-03-09T04:25:34;7.30;99.90
17715;DHT22;8977;50.902;4.314;2023-03-09T04:28:01;7.30;99.90
17715;DHT22;8977;50.902;4.314;2023-03-09T04:30:28;7.30;99.90
17715;DHT22;8977;50.902;4.314;2023-03-09T04:32:56;7.30;99.90
17715;DHT22;8977;50.902;4.314;2023-03-09T04:35:23;7.40;99.90
17715;DHT22;8977;50.902;4.314;2023-03-09T04:37:52;7.40;99.90
17715;DHT22;8977;50.902;4.314;2023-03-09T04:40:20;7.30;99.90
17715;DHT22;8977;50.902;4.314;2023-03-09T04:42:48;7.40;99.90
17715;DHT22;8977;50.902;4.314;2023-03-09T04:45:15;7.30;99.90
17715;DHT22;8977;50.902;4.314;2023-03-09T04:47:42;7.40;99.90
17715;DHT22;8977;50.902;4.314;2023-03-09T04:50:10;7.40;99.90
17715;DHT22;8977;50.902;4.314;2023-03-09T04:52:37;7.40;99.90
17715;DHT22;8977;50.902;4.314;2023-03-09T04:55:05;7.30;99.90
17715;DHT22;8977;50.902;4.314;2023-03-09T04:57:32;7.30;99.90
17715;DHT22;8977;50.902;4.314;2023-03-09T05:00:00;7.40;99.90
17715;DHT22;8977;50.902;4.314;2023-03-09T05:02:30;7.40;99.90
17715;DHT22;8977;50.902;4.314;2023-03-09T05:04:57;7.30;99.90
17715;DHT22;8977;50.902;4.314;2023-03-09T05:07:23;7.30;99.90
17715;DHT22;8977;50.902;4.314;2023-03-09T05:09:50;7.30;99.90
17715;DHT22;8977;50.902;4.314;2023-03-09T05:12:17;7.30;99.90
17715;DHT22;8977;50.902;4.314;2023-03-09T05:14:44;7.30;99.90
17715;DHT22;8977;50.902;4.314;2023-03-09T05:17:12;7.30;99.90
17715;DHT22;8977;50.902;4.314;2023-03-09T05:19:39;7.30;99.90
17715;DHT22;8977;50.902;4.314;2023-03-09T05:22:07;7.30;99.90
17715;DHT22;8977;50.902;4.314;2023-03-09T05:24:34;7.30;99.90
17715;DHT22;8977;50.902;4.314;2023-03-09T05:27:00;7.30;99.90
17715;DHT22;8977;50.902;4.314;2023-03-09T05:29:27;7.30;99.90
17715;DHT22;8977;50.902;4.314;2023-03-09T05:31:54;7.30;99.90
17715;DHT22;8977;50.902;4.314;2023-03-09T05:34:23;7.30;99.90
17715;DHT22;8977;50.902;4.314;2023-03-09T05:36:50;7.30;99.90
17715;DHT22;8977;50.902;4.314;2023-03-09T05:39:17;7.30;99.90
17715;DHT22;8977;50.902;4.314;2023-03-09T05:41:46;7.30;99.90
17715;DHT22;8977;50.902;4.314;2023-03-09T05:44:13;7.30;99.90
17715;DHT22;8977;50.902;4.314;2023-03-09T05:46:40;7.30;99.90
17715;DHT22;8977;50.902;4.314;2023-03-09T05:49:07;7.30;99.90
17715;DHT22;8977;50.902;4.314;2023-03-09T05:51:36;7.30;99.90
17715;DHT22;8977;50.902;4.314;2023-03-09T05:54:03;7.20;99.90
17715;DHT22;8977;50.902;4.314;2023-03-09T05:56:30;7.20;99.90
17715;DHT22;8977;50.902;4.314;2023-03-09T05:58:57;7.20;99.90
17715;DHT22;8977;50.902;4.314;2023-03-09T06:01:25;7.20;99.90
17715;DHT22;8977;50.902;4.314;2023-03-09T06:03:53;7.20;99.90
17715;DHT22;8977;50.902;4.314;2023-03-09T06:06:20;7.20;99.90
17715;DHT22;8977;50.902;4.314;2023-03-09T06:08:49;7.20;99.90
17715;DHT22;8977;50.902;4.314;2023-03-09T06:11:16;7.20;99.90
17715;DHT22;8977;50.902;4.314;2023-03-09T06:13:43;7.20;99.90
17715;DHT22;8977;50.902;4.314;2023-03-09T06:16:13;7.20;99.90
17715;DHT22;8977;50.902;4.314;2023-03-09T06:18:47;7.20;99.90
17715;DHT22;8977;50.902;4.314;2023-03-09T06:21:14;7.20;99.90
17715;DHT22;8977;50.902;4.314;2023-03-09T06:23:41;7.20;99.90
17715;DHT22;8977;50.902;4.314;2023-03-09T06:26:11;7.30;99.90
17715;DHT22;8977;50.902;4.314;2023-03-09T06:28:38;7.30;99.90
17715;DHT22;8977;50.902;4.314;2023-03-09T06:31:06;7.30;99.90
17715;DHT22;8977;50.902;4.314;2023-03-09T06:33:34;7.30;99.90
17715;DHT22;8977;50.902;4.314;2023-03-09T06:36:01;7.30;99.90
17715;DHT22;8977;50.902;4.314;2023-03-09T06:38:28;7.20;99.90
17715;DHT22;8977;50.902;4.314;2023-03-09T06:40:55;7.20;99.90
17715;DHT22;8977;50.902;4.314;2023-03-09T06:43:23;7.30;99.90
17715;DHT22;8977;50.902;4.314;2023-03-09T06:45:50;7.30;99.90
17715;DHT22;8977;50.902;4.314;2023-03-09T06:48:17;7.30;99.90
17715;DHT22;8977;50.902;4.314;2023-03-09T06:50:44;7.30;99.90
17715;DHT22;8977;50.902;4.314;2023-03-09T06:53:12;7.30;99.90
17715;DHT22;8977;50.902;4.314;2023-03-09T06:55:38;7.30;99.90
17715;DHT22;8977;50.902;4.314;2023-03-09T06:58:05;7.30;99.90
17715;DHT22;8977;50.902;4.314;2023-03-09T07:00:34;7.30;99.90
17715;DHT22;8977;50.902;4.314;2023-03-09T07:03:03;7.30;99.90
17715;DHT22;8977;50.902;4.314;2023-03-09T07:05:30;7.30;99.90
17715;DHT22;8977;50.902;4.314;2023-03-09T07:07:57;7.30;99.90
17715;DHT22;8977;50.902;4.314;2023-03-09T07:10:24;7.30;99.90
17715;DHT22;8977;50.902;4.314;2023-03-09T07:12:51;7.30;99.90
17715;DHT22;8977;50.902;4.314;2023-03-09T07:15:17;7.30;99.90
17715;DHT22;8977;50.902;4.314;2023-03-09T07:17:46;7.30;99.90
17715;DHT22;8977;50.902;4.314;2023-03-09T07:20:13;7.30;99.90
17715;DHT22;8977;50.902;4.314;2023-03-09T07:22:39;7.30;99.90
17715;DHT22;8977;50.902;4.314;2023-03-09T07:25:07;7.30;99.90
17715;DHT22;8977;50.902;4.314;2023-03-09T07:27:34;7.30;99.90
17715;DHT22;8977;50.902;4.314;2023-03-09T07:30:01;7.30;99.90
17715;DHT22;8977;50.902;4.314;2023-03-09T07:32:29;7.30;99.90
17715;DHT22;8977;50.902;4.314;2023-03-09T07:34:58;7.30;99.90
17715;DHT22;8977;50.902;4.314;2023-03-09T07:37:24;7.30;99.90
17715;DHT22;8977;50.902;4.314;2023-03-09T07:39:51;7.30;99.90
17715;DHT22;8977;50.902;4.314;2023-03-09T07:42:18;7.30;99.90
17715;DHT22;8977;50.902;4.314;2023-03-09T07:44:45;7.40;99.90
17715;DHT22;8977;50.902;4.314;2023-03-09T07:47:12;7.30;99.90
17715;DHT22;8977;50.902;4.314;2023-03-09T07:49:39;7.40;99.90
17715;DHT22;8977;50.902;4.314;2023-03-09T07:52:07;7.30;99.90
17715;DHT22;8977;50.902;4.314;2023-03-09T07:54:34;7.30;99.90
17715;DHT22;8977;50.902;4.314;2023-03-09T07:57:02;7.30;99.90
17715;DHT22;8977;50.902;4.314;2023-03-09T07:59:29;7.30;99.90
17715;DHT22;8977;50.902;4.314;2023-03-09T08:01:56;7.40;99.90
17715;DHT22;8977;50.902;4.314;2023-03-09T08:04:23;7.40;99.90
17715;DHT22;8977;50.902;4.314;2023-03-09T08:06:52;7.40;99.90
17715;DHT22;8977;50.902;4.314;2023-03-09T08:09:23;7.40;99.90
17715;DHT22;8977;50.902;4.314;2023-03-09T08:11:53;7.40;99.90
17715;DHT22;8977;50.902;4.314;2023-03-09T08:14:19;7.50;99.90
17715;DHT22;8977;50.902;4.314;2023-03-09T08:16:46;7.50;99.90
17715;DHT22;8977;50.902;4.314;2023-03-09T08:19:14;7.50;99.90
17715;DHT22;8977;50.902;4.314;2023-03-09T08:21:45;7.50;99.90
17715;DHT22;8977;50.902;4.314;2023-03-09T08:24:12;7.50;99.90
17715;DHT22;8977;50.902;4.314;2023-03-09T08:26:41;7.50;99.90
17715;DHT22;8977;50.902;4.314;2023-03-09T08:29:09;7.50;99.90
17715;DHT22;8977;50.902;4.314;2023-03-09T08:31:36;7.50;99.90
17715;DHT22;8977;50.902;4.314;2023-03-09T08:34:03;7.50;99.90
17715;DHT22;8977;50.902;4.314;2023-03-09T08:36:30;7.60;99.90
17715;DHT22;8977;50.902;4.314;2023-03-09T08:38:58;7.60;99.90
17715;DHT22;8977;50.902;4.314;2023-03-09T08:41:25;7.60;99.90
17715;DHT22;8977;50.902;4.314;2023-03-09T08:43:53;7.60;99.90
17715;DHT22;8977;50.902;4.314;2023-03-09T08:46:21;7.70;99.90
17715;DHT22;8977;50.902;4.314;2023-03-09T08:48:48;7.80;99.90
17715;DHT22;8977;50.902;4.314;2023-03-09T08:51:15;7.80;99.90
17715;DHT22;8977;50.902;4.314;2023-03-09T08:53:42;7.80;99.90
17715;DHT22;8977;50.902;4.314;2023-03-09T08:56:10;7.70;99.90
17715;DHT22;8977;50.902;4.314;2023-03-09T08:58:37;7.80;99.90
17715;DHT22;8977;50.902;4.314;2023-03-09T09:01:08;7.80;99.90
17715;DHT22;8977;50.902;4.314;2023-03-09T09:03:35;7.80;99.90
17715;DHT22;8977;50.902;4.314;2023-03-09T09:06:05;7.90;99.90
17715;DHT22;8977;50.902;4.314;2023-03-09T09:08:32;7.90;99.90
17715;DHT22;8977;50.902;4.314;2023-03-09T09:10:59;8.00;99.90
17715;DHT22;8977;50.902;4.314;2023-03-09T09:13:30;8.00;99.90
17715;DHT22;8977;50.902;4.314;2023-03-09T09:15:57;8.00;99.90
17715;DHT22;8977;50.902;4.314;2023-03-09T09:18:26;8.00;99.90
17715;DHT22;8977;50.902;4.314;2023-03-09T09:20:53;8.10;99.90
17715;DHT22;8977;50.902;4.314;2023-03-09T09:23:20;8.10;99.90
17715;DHT22;8977;50.902;4.314;2023-03-09T09:25:53;8.10;99.90
17715;DHT22;8977;50.902;4.314;2023-03-09T09:28:20;8.20;99.90
17715;DHT22;8977;50.902;4.314;2023-03-09T09:30:52;8.20;99.90
17715;DHT22;8977;50.902;4.314;2023-03-09T09:33:20;8.20;99.90
17715;DHT22;8977;50.902;4.314;2023-03-09T09:35:56;8.20;99.90
17715;DHT22;8977;50.902;4.314;2023-03-09T09:38:24;8.30;99.90
17715;DHT22;8977;50.902;4.314;2023-03-09T09:40:52;8.30;99.90
17715;DHT22;8977;50.902;4.314;2023-03-09T09:43:21;8.30;99.90
17715;DHT22;8977;50.902;4.314;2023-03-09T09:45:48;8.30;99.90
17715;DHT22;8977;50.902;4.314;2023-03-09T09:48:16;8.30;99.90
17715;DHT22;8977;50.902;4.314;2023-03-09T09:51:00;8.40;99.90
17715;DHT22;8977;50.902;4.314;2023-03-09T09:53:36;8.40;99.90
17715;DHT22;8977;50.902;4.314;2023-03-09T09:56:09;8.40;99.90
17715;DHT22;8977;50.902;4.314;2023-03-09T09:58:43;8.40;99.90
17715;DHT22;8977;50.902;4.314;2023-03-09T10:01:17;8.40;99.90
17715;DHT22;8977;50.902;4.314;2023-03-09T10:03:48;8.40;99.90
17715;DHT22;8977;50.902;4.314;2023-03-09T10:06:20;8.50;99.90
17715;DHT22;8977;50.902;4.314;2023-03-09T10:08:50;8.50;99.90
17715;DHT22;8977;50.902;4.314;2023-03-09T10:11:23;8.50;99.90
17715;DHT22;8977;50.902;4.314;2023-03-09T10:13:53;8.50;99.90
17715;DHT22;8977;50.902;4.314;2023-03-09T10:16:24;8.60;99.90
17715;DHT22;8977;50.902;4.314;2023-03-09T10:18:55;8.60;99.90
17715;DHT22;8977;50.902;4.314;2023-03-09T10:21:28;8.60;99.90
17715;DHT22;8977;50.902;4.314;2023-03-09T10:24:05;8.60;99.90
17715;DHT22;8977;50.902;4.314;2023-03-09T10:26:42;8.70;99.90
17715;DHT22;8977;50.902;4.314;2023-03-09T10:29:18;8.60;99.90
17715;DHT22;8977;50.902;4.314;2023-03-09T10:31:52;8.70;99.90
17715;DHT22;8977;50.902;4.314;2023-03-09T10:34:22;8.70;99.90
17715;DHT22;8977;50.902;4.314;2023-03-09T10:36:59;8.70;99.90
17715;DHT22;8977;50.902;4.314;2023-03-09T10:39:34;8.70;99.90
17715;DHT22;8977;50.902;4.314;2023-03-09T10:42:16;8.80;99.90
17715;DHT22;8977;50.902;4.314;2023-03-09T10:44:48;8.80;99.90
17715;DHT22;8977;50.902;4.314;2023-03-09T10:47:17;8.80;99.90
17715;DHT22;8977;50.902;4.314;2023-03-09T10:50:07;8.90;99.90
17715;DHT22;8977;50.902;4.314;2023-03-09T10:52:36;9.00;99.90
17715;DHT22;8977;50.902;4.314;2023-03-09T10:55:29;9.10;99.90
17715;DHT22;8977;50.902;4.314;2023-03-09T10:57:59;9.10;99.90
17715;DHT22;8977;50.902;4.314;2023-03-09T11:00:27;9.10;99.90
17715;DHT22;8977;50.902;4.314;2023-03-09T11:02:56;9.10;99.90
17715;DHT22;8977;50.902;4.314;2023-03-09T11:05:26;9.20;99.90
17715;DHT22;8977;50.902;4.314;2023-03-09T11:07:56;9.20;99.90
17715;DHT22;8977;50.902;4.314;2023-03-09T11:10:25;9.20;99.90
17715;DHT22;8977;50.902;4.314;2023-03-09T11:12:53;9.20;99.90
17715;DHT22;8977;50.902;4.314;2023-03-09T11:15:27;9.20;99.90
17715;DHT22;8977;50.902;4.314;2023-03-09T11:17:55;9.20;99.90
17715;DHT22;8977;50.902;4.314;2023-03-09T11:20:31;9.20;99.90
17715;DHT22;8977;50.902;4.314;2023-03-09T11:23:14;9.20;99.90
17715;DHT22;8977;50.902;4.314;2023-03-09T11:25:58;9.20;99.90
17715;DHT22;8977;50.902;4.314;2023-03-09T11:28:34;9.20;99.90
17715;DHT22;8977;50.902;4.314;2023-03-09T11:31:02;9.20;99.90
17715;DHT22;8977;50.902;4.314;2023-03-09T11:33:30;9.20;99.90
17715;DHT22;8977;50.902;4.314;2023-03-09T11:35:58;9.20;99.90
17715;DHT22;8977;50.902;4.314;2023-03-09T11:38:29;9.20;99.90
17715;DHT22;8977;50.902;4.314;2023-03-09T11:41:04;9.20;99.90
17715;DHT22;8977;50.902;4.314;2023-03-09T11:43:36;9.20;99.90
17715;DHT22;8977;50.902;4.314;2023-03-09T11:46:06;9.20;99.90
17715;DHT22;8977;50.902;4.314;2023-03-09T11:48:39;9.20;99.90
17715;DHT22;8977;50.902;4.314;2023-03-09T11:51:10;9.20;99.90
17715;DHT22;8977;50.902;4.314;2023-03-09T11:53:42;9.20;99.90
17715;DHT22;8977;50.902;4.314;2023-03-09T11:56:17;9.30;99.90
17715;DHT22;8977;50.902;4.314;2023-03-09T11:58:48;9.30;99.90
17715;DHT22;8977;50.902;4.314;2023-03-09T12:01:24;9.30;99.90
17715;DHT22;8977;50.902;4.314;2023-03-09T12:03:57;9.30;99.90
17715;DHT22;8977;50.902;4.314;2023-03-09T12:06:32;9.30;99.90
17715;DHT22;8977;50.902;4.314;2023-03-09T12:09:04;9.30;99.90
17715;DHT22;8977;50.902;4.314;2023-03-09T12:11:36;9.30;99.90
17715;DHT22;8977;50.902;4.314;2023-03-09T12:14:13;9.30;99.90
17715;DHT22;8977;50.902;4.314;2023-03-09T12:16:42;9.30;99.90
17715;DHT22;8977;50.902;4.314;2023-03-09T12:19:15;9.30;99.90
17715;DHT22;8977;50.902;4.314;2023-03-09T12:21:44;9.30;99.90
17715;DHT22;8977;50.902;4.314;2023-03-09T12:24:30;9.30;99.90
17715;DHT22;8977;50.902;4.314;2023-03-09T12:27:00;9.30;99.90
17715;DHT22;8977;50.902;4.314;2023-03-09T12:29:32;9.40;99.90
17715;DHT22;8977;50.902;4.314;2023-03-09T12:32:17;9.40;99.90
17715;DHT22;8977;50.902;4.314;2023-03-09T12:34:46;9.40;99.90
17715;DHT22;8977;50.902;4.314;2023-03-09T12:40:34;9.60;99.90
17715;DHT22;8977;50.902;4.314;2023-03-09T12:46:59;9.90;99.90
17715;DHT22;8977;50.902;4.314;2023-03-09T12:49:41;10.10;99.90
17715;DHT22;8977;50.902;4.314;2023-03-09T12:52:30;10.30;99.90
17715;DHT22;8977;50.902;4.314;2023-03-09T12:55:15;10.50;99.90
17715;DHT22;8977;50.902;4.314;2023-03-09T12:57:43;10.70;99.90
17715;DHT22;8977;50.902;4.314;2023-03-09T13:00:26;10.80;99.90
17715;DHT22;8977;50.902;4.314;2023-03-09T13:02:57;11.00;99.90
17715;DHT22;8977;50.902;4.314;2023-03-09T13:05:30;11.10;99.90
17715;DHT22;8977;50.902;4.314;2023-03-09T13:08:01;11.20;99.90
17715;DHT22;8977;50.902;4.314;2023-03-09T13:10:32;11.40;99.90
17715;DHT22;8977;50.902;4.314;2023-03-09T13:13:38;11.50;99.90
17715;DHT22;8977;50.902;4.314;2023-03-09T13:16:35;11.60;99.90
17715;DHT22;8977;50.902;4.314;2023-03-09T13:22:29;11.70;99.90
17715;DHT22;8977;50.902;4.314;2023-03-09T13:28:21;11.60;99.90
17715;DHT22;8977;50.902;4.314;2023-03-09T13:30:51;11.60;99.90
17715;DHT22;8977;50.902;4.314;2023-03-09T13:33:23;11.60;99.90
17715;DHT22;8977;50.902;4.314;2023-03-09T13:35:57;11.70;99.90
17715;DHT22;8977;50.902;4.314;2023-03-09T13:38:27;11.70;99.90
17715;DHT22;8977;50.902;4.314;2023-03-09T13:40:57;11.60;99.90
17715;DHT22;8977;50.902;4.314;2023-03-09T13:43:27;11.60;99.90
17715;DHT22;8977;50.902;4.314;2023-03-09T13:46:01;11.60;99.90
17715;DHT22;8977;50.902;4.314;2023-03-09T13:48:30;11.60;99.90
17715;DHT22;8977;50.902;4.314;2023-03-09T13:50:57;11.70;99.90
17715;DHT22;8977;50.902;4.314;2023-03-09T13:53:27;11.70;99.90
17715;DHT22;8977;50.902;4.314;2023-03-09T13:55:55;11.70;99.90
17715;DHT22;8977;50.902;4.314;2023-03-09T13:58:22;11.60;99.90
17715;DHT22;8977;50.902;4.314;2023-03-09T14:00:51;11.60;99.90
17715;DHT22;8977;50.902;4.314;2023-03-09T14:03:19;11.60;99.90
17715;DHT22;8977;50.902;4.314;2023-03-09T14:05:54;11.60;99.90
17715;DHT22;8977;50.902;4.314;2023-03-09T14:08:21;11.60;99.90
17715;DHT22;8977;50.902;4.314;2023-03-09T14:10:51;11.60;99.90
17715;DHT22;8977;50.902;4.314;2023-03-09T14:13:20;11.60;99.90
17715;DHT22;8977;50.902;4.314;2023-03-09T14:15:58;11.60;99.90
17715;DHT22;8977;50.902;4.314;2023-03-09T14:18:33;11.70;99.90
17715;DHT22;8977;50.902;4.314;2023-03-09T14:21:00;11.70;99.90
17715;DHT22;8977;50.902;4.314;2023-03-09T14:23:38;11.70;99.90
17715;DHT22;8977;50.902;4.314;2023-03-09T14:26:08;11.70;99.90
17715;DHT22;8977;50.902;4.314;2023-03-09T14:28:36;11.70;99.90
17715;DHT22;8977;50.902;4.314;2023-03-09T14:31:13;11.70;99.90
17715;DHT22;8977;50.902;4.314;2023-03-09T14:33:56;11.60;99.90
17715;DHT22;8977;50.902;4.314;2023-03-09T14:36:24;11.70;99.90
17715;DHT22;8977;50.902;4.314;2023-03-09T14:38:54;11.70;99.90
17715;DHT22;8977;50.902;4.314;2023-03-09T14:41:24;11.70;99.90
17715;DHT22;8977;50.902;4.314;2023-03-09T14:43:51;11.70;99.90
17715;DHT22;8977;50.902;4.314;2023-03-09T14:46:19;11.70;99.90
17715;DHT22;8977;50.902;4.314;2023-03-09T14:48:47;11.70;99.90
17715;DHT22;8977;50.902;4.314;2023-03-09T14:51:17;11.80;99.90
17715;DHT22;8977;50.902;4.314;2023-03-09T14:53:52;11.70;99.90
17715;DHT22;8977;50.902;4.314;2023-03-09T14:56:20;11.70;99.90
17715;DHT22;8977;50.902;4.314;2023-03-09T14:58:48;11.70;99.90
17715;DHT22;8977;50.902;4.314;2023-03-09T15:01:15;11.70;99.90
17715;DHT22;8977;50.902;4.314;2023-03-09T15:03:43;11.70;99.90
17715;DHT22;8977;50.902;4.314;2023-03-09T15:06:10;11.80;99.90
17715;DHT22;8977;50.902;4.314;2023-03-09T15:08:37;11.80;99.90
17715;DHT22;8977;50.902;4.314;2023-03-09T15:11:04;11.90;99.90
17715;DHT22;8977;50.902;4.314;2023-03-09T15:13:32;11.80;99.90
17715;DHT22;8977;50.902;4.314;2023-03-09T15:16:01;11.90;99.90
17715;DHT22;8977;50.902;4.314;2023-03-09T15:18:28;11.80;99.90
17715;DHT22;8977;50.902;4.314;2023-03-09T15:20:55;11.80;99.90
17715;DHT22;8977;50.902;4.314;2023-03-09T15:23:21;11.90;99.90
17715;DHT22;8977;50.902;4.314;2023-03-09T15:25:48;11.80;99.90
17715;DHT22;8977;50.902;4.314;2023-03-09T15:28:15;11.80;99.90
17715;DHT22;8977;50.902;4.314;2023-03-09T15:30:42;11.80;99.90
17715;DHT22;8977;50.902;4.314;2023-03-09T15:33:10;11.90;99.90
17715;DHT22;8977;50.902;4.314;2023-03-09T15:35:40;11.80;99.90
17715;DHT22;8977;50.902;4.314;2023-03-09T15:38:07;11.80;99.90
17715;DHT22;8977;50.902;4.314;2023-03-09T15:40:34;11.80;99.90
17715;DHT22;8977;50.902;4.314;2023-03-09T15:43:01;11.80;99.90
17715;DHT22;8977;50.902;4.314;2023-03-09T15:45:28;11.80;99.90
17715;DHT22;8977;50.902;4.314;2023-03-09T15:47:55;11.80;99.90
17715;DHT22;8977;50.902;4.314;2023-03-09T15:50:23;11.90;99.90
17715;DHT22;8977;50.902;4.314;2023-03-09T15:52:50;11.90;99.90
17715;DHT22;8977;50.902;4.314;2023-03-09T15:55:17;11.90;99.90
17715;DHT22;8977;50.902;4.314;2023-03-09T15:57:44;11.80;99.90
17715;DHT22;8977;50.902;4.314;2023-03-09T16:00:13;11.80;99.90
17715;DHT22;8977;50.902;4.314;2023-03-09T16:02:40;11.80;99.90
17715;DHT22;8977;50.902;4.314;2023-03-09T16:05:08;11.80;99.90
17715;DHT22;8977;50.902;4.314;2023-03-09T16:07:37;11.80;99.90
17715;DHT22;8977;50.902;4.314;2023-03-09T16:10:04;11.90;99.90
17715;DHT22;8977;50.902;4.314;2023-03-09T16:12:31;11.90;99.90
17715;DHT22;8977;50.902;4.314;2023-03-09T16:14:58;12.00;99.90
17715;DHT22;8977;50.902;4.314;2023-03-09T16:17:25;11.90;99.90
17715;DHT22;8977;50.902;4.314;2023-03-09T16:19:52;11.90;99.90
17715;DHT22;8977;50.902;4.314;2023-03-09T16:22:19;12.00;99.90
17715;DHT22;8977;50.902;4.314;2023-03-09T16:24:48;11.90;99.90